createdAt,value
2019-04-26T00:02:07.711Z,19.90
2019-04-26T00:04:59.688Z,20.03
2019-04-26T00:07:55.571Z,20.20
2019-04-26T00:11:03.677Z,20.70
2019-04-26T00:17:49.019Z,19.90
2019-04-26T00:23:52.507Z,20.57
2019-04-26T00:27:03.262Z,19.90
2019-04-26T00:33:23.326Z,20.50
2019-04-26T00:36:26.197Z,19.57
2019-04-26T00:39:18.195Z,20.33
2019-04-26T00:42:27.225Z,19.97
2019-04-26T00:45:31.321Z,19.63
2019-04-26T00:51:36.246Z,20.23
2019-04-26T00:57:33.901Z,20.30
2019-04-26T01:00:33.620Z,19.93
2019-04-26T01:03:43.890Z,20.07
2019-04-26T01:06:33.402Z,20.47
2019-04-26T01:09:25.660Z,19.17
2019-04-26T01:12:17.520Z,21.00
2019-04-26T01:15:17.061Z,19.57
2019-04-26T01:18:09.800Z,20.10
2019-04-26T01:20:58.530Z,19.97
2019-04-26T01:27:59.938Z,20.03
2019-04-26T01:30:54.414Z,21.13
2019-04-26T01:33:52.271Z,19.23
2019-04-26T01:36:40.909Z,20.63
2019-04-26T01:40:24.620Z,20.03
2019-04-26T01:43:03.486Z,19.90
2019-04-26T01:46:04.159Z,18.03
2019-04-26T01:49:03.653Z,19.10
2019-04-26T02:02:34.950Z,19.63
2019-04-26T02:06:05.739Z,21.00
2019-04-26T02:09:14.863Z,19.87
2019-04-26T02:12:10.883Z,20.20
2019-04-26T02:15:07.589Z,20.13
2019-04-26T02:18:15.091Z,19.77
2019-04-26T02:21:35.654Z,18.93
2019-04-26T02:24:43.550Z,19.93
2019-04-26T02:27:42.937Z,19.50
2019-04-26T02:37:44.352Z,20.70
2019-04-26T02:40:33.180Z,20.97
2019-04-26T02:43:35.246Z,21.40
2019-04-26T02:49:54.806Z,20.47
2019-04-26T02:53:00.354Z,21.80
2019-04-26T02:56:32.167Z,21.13
2019-04-26T02:59:45.669Z,21.07
2019-04-26T03:02:42.716Z,20.87
2019-04-26T03:05:35.642Z,21.13
2019-04-26T03:08:26.040Z,21.20
2019-04-26T03:14:44.779Z,20.83
2019-04-26T03:17:52.967Z,20.27
2019-04-26T03:20:46.816Z,20.77
2019-04-26T03:30:51.110Z,21.33
2019-04-26T03:33:54.413Z,21.00
2019-04-26T03:36:58.305Z,20.57
2019-04-26T03:43:35.015Z,21.37
2019-04-26T03:46:30.837Z,20.77
2019-04-26T03:49:38.042Z,19.60
2019-04-26T03:56:16.803Z,21.00
2019-04-26T03:59:40.343Z,21.67
2019-04-26T04:02:47.513Z,20.73
2019-04-26T04:06:00.785Z,20.43
2019-04-26T04:08:57.425Z,20.60
2019-04-26T04:12:09.249Z,19.83
2019-04-26T04:15:02.695Z,20.77
2019-04-26T04:17:55.312Z,20.10
2019-04-26T04:21:19.019Z,18.60
2019-04-26T04:24:14.666Z,19.80
2019-04-26T04:27:30.816Z,18.93
2019-04-26T04:30:45.858Z,19.53
2019-04-26T04:33:53.258Z,19.63
2019-04-26T04:39:54.058Z,19.60
2019-04-26T04:43:00.115Z,18.87
2019-04-26T04:46:17.975Z,19.50
2019-04-26T04:49:39.033Z,19.77
2019-04-26T04:52:48.168Z,20.00
2019-04-26T04:56:00.585Z,19.73
2019-04-26T04:59:11.171Z,19.30
2019-04-26T05:06:06.653Z,19.20
2019-04-26T05:09:26.801Z,19.97
2019-04-26T05:12:19.753Z,19.53
2019-04-26T05:15:37.644Z,18.83
2019-04-26T05:18:45.660Z,18.53
2019-04-26T05:21:52.975Z,17.40
2019-04-26T05:25:00.060Z,16.23
2019-04-26T05:28:05.083Z,17.67
2019-04-26T05:31:14.329Z,17.33
2019-04-26T05:34:07.390Z,16.13
2019-04-26T05:37:01.344Z,17.20
2019-04-26T05:39:57.432Z,17.80
2019-04-26T05:43:14.235Z,17.63
2019-04-26T05:46:42.989Z,17.63
2019-04-26T05:54:18.992Z,18.83
2019-04-26T05:57:21.359Z,17.70
2019-04-26T06:00:26.984Z,17.20
2019-04-26T06:07:36.684Z,17.80
2019-04-26T06:18:03.167Z,16.13
2019-04-26T06:21:25.992Z,21.63
2019-04-26T06:24:35.617Z,16.37
2019-04-26T06:27:53.509Z,16.00
2019-04-26T06:31:07.297Z,15.60
2019-04-26T06:34:11.725Z,15.20
2019-04-26T06:37:14.833Z,15.67
2019-04-26T06:40:09.832Z,14.80
2019-04-26T06:43:32.132Z,14.83
2019-04-26T06:46:56.249Z,14.00
2019-04-26T06:50:15.426Z,14.50
2019-04-26T06:53:12.689Z,15.00
2019-04-26T06:56:12.059Z,13.83
2019-04-26T06:59:22.544Z,13.97
2019-04-26T07:02:22.479Z,12.80
2019-04-26T07:05:15.182Z,12.67
2019-04-26T07:08:21.242Z,12.33
2019-04-26T07:11:54.027Z,11.80
2019-04-26T07:15:13.152Z,11.20
2019-04-26T07:18:18.619Z,10.23
2019-04-26T07:21:16.998Z,11.57
2019-04-26T07:24:35.354Z,11.10
2019-04-26T07:27:44.919Z,11.57
2019-04-26T07:30:47.718Z,11.57
2019-04-26T07:33:48.433Z,11.33
2019-04-26T07:36:53.553Z,11.17
2019-04-26T07:39:52.007Z,11.50
2019-04-26T07:43:08.177Z,10.93
2019-04-26T07:46:13.967Z,10.43
2019-04-26T07:49:19.113Z,12.17
2019-04-26T07:52:34.872Z,13.13
2019-04-26T07:55:32.267Z,13.23
2019-04-26T07:58:38.179Z,10.73
2019-04-26T08:01:51.551Z,9.70
2019-04-26T08:04:46.457Z,10.77
2019-04-26T08:07:32.283Z,10.70
2019-04-26T08:10:21.843Z,9.57
2019-04-26T08:13:13.078Z,9.10
2019-04-26T08:16:21.022Z,9.70
2019-04-26T08:19:12.577Z,10.13
2019-04-26T08:22:14.798Z,8.93
2019-04-26T08:24:52.016Z,9.20
2019-04-26T08:27:40.787Z,9.20
2019-04-26T08:30:30.560Z,9.17
2019-04-26T08:33:20.566Z,8.50
2019-04-26T08:36:10.486Z,8.83
2019-04-26T08:38:59.005Z,8.47
2019-04-26T08:41:48.229Z,8.87
2019-04-26T08:44:50.901Z,8.40
2019-04-26T08:47:59.469Z,9.17
2019-04-26T08:50:49.695Z,8.37
2019-04-26T08:53:39.247Z,8.50
2019-04-26T08:56:29.331Z,8.73
2019-04-26T08:59:18.500Z,8.13
2019-04-26T09:02:34.033Z,8.63
2019-04-26T09:05:54.258Z,8.27
2019-04-26T09:08:44.836Z,8.00
2019-04-26T09:11:34.971Z,8.90
2019-04-26T09:14:23.815Z,8.70
2019-04-26T09:17:12.190Z,8.60
2019-04-26T09:20:06.984Z,8.77
2019-04-26T09:23:04.819Z,8.97
2019-04-26T09:25:59.312Z,7.87
2019-04-26T09:28:57.644Z,8.10
2019-04-26T09:31:50.590Z,8.37
2019-04-26T09:37:51.014Z,6.87
2019-04-26T09:40:39.101Z,7.43
2019-04-26T09:43:36.554Z,7.60
2019-04-26T09:46:48.389Z,7.60
2019-04-26T09:50:03.099Z,7.63
2019-04-26T09:52:53.905Z,8.03
2019-04-26T09:55:42.037Z,7.90
2019-04-26T09:58:36.158Z,8.27
2019-04-26T10:02:04.762Z,8.63
2019-04-26T10:05:08.122Z,8.73
2019-04-26T10:07:54.840Z,8.20
2019-04-26T10:10:44.615Z,7.97
2019-04-26T10:17:19.113Z,7.80
2019-04-26T10:20:15.100Z,8.20
2019-04-26T10:26:29.820Z,8.70
2019-04-26T10:30:08.008Z,8.27
2019-04-26T10:36:29.677Z,8.30
2019-04-26T10:39:19.215Z,7.40
2019-04-26T10:42:20.034Z,7.63
2019-04-26T10:45:14.517Z,7.50
2019-04-26T10:48:33.348Z,7.77
2019-04-26T10:51:33.250Z,7.37
2019-04-26T10:54:28.437Z,7.27
2019-04-26T10:57:25.057Z,7.03
2019-04-26T11:00:22.931Z,7.43
2019-04-26T11:03:11.375Z,7.87
2019-04-26T11:06:24.117Z,8.03
2019-04-26T11:09:13.934Z,7.47
2019-04-26T11:12:01.967Z,6.83
2019-04-26T11:14:53.207Z,6.67
2019-04-26T11:27:05.386Z,6.90
2019-04-26T11:29:54.294Z,6.80
2019-04-26T11:32:42.652Z,7.60
2019-04-26T11:35:34.861Z,7.27
2019-04-26T11:38:26.905Z,7.37
2019-04-26T11:41:19.953Z,7.43
2019-04-26T11:44:08.497Z,7.37
2019-04-26T11:46:59.309Z,7.60
2019-04-26T11:49:46.382Z,8.20
2019-04-26T11:52:46.742Z,7.87
2019-04-26T11:55:33.815Z,7.60
2019-04-26T11:58:22.387Z,7.87
2019-04-26T12:01:12.353Z,7.63
2019-04-26T12:04:23.009Z,9.77
2019-04-26T12:07:16.990Z,8.80
2019-04-26T12:10:09.762Z,7.23
2019-04-26T12:13:05.465Z,6.70
2019-04-26T12:15:45.730Z,6.47
2019-04-26T12:18:33.758Z,7.20
2019-04-26T12:21:22.634Z,6.67
2019-04-26T12:24:14.250Z,6.67
2019-04-26T12:27:03.835Z,6.97
2019-04-26T12:29:54.330Z,6.83
2019-04-26T12:35:57.095Z,6.40
2019-04-26T12:38:42.731Z,6.30
2019-04-26T12:41:40.291Z,6.87
2019-04-26T12:44:25.374Z,7.33
2019-04-26T12:47:17.411Z,7.23
2019-04-26T12:50:04.989Z,7.53
2019-04-26T12:52:55.718Z,6.87
2019-04-26T12:55:49.253Z,7.20
2019-04-26T12:58:34.888Z,7.20
2019-04-26T13:01:24.402Z,6.50
2019-04-26T13:04:12.746Z,7.20
2019-04-26T13:10:46.423Z,8.00
2019-04-26T13:13:47.345Z,8.03
2019-04-26T13:16:57.210Z,7.57
2019-04-26T13:19:45.307Z,7.70
2019-04-26T13:22:45.365Z,7.93
2019-04-26T13:25:26.591Z,7.47
2019-04-26T13:28:15.541Z,7.73
2019-04-26T13:31:03.264Z,7.50
2019-04-26T13:33:52.904Z,8.23
2019-04-26T13:36:40.353Z,8.50
2019-04-26T13:39:28.387Z,8.13
2019-04-26T13:42:19.148Z,8.10
2019-04-26T13:45:26.423Z,8.80
2019-04-26T13:48:33.971Z,9.83
2019-04-26T13:51:35.058Z,8.90
2019-04-26T13:54:23.265Z,8.10
2019-04-26T13:57:11.278Z,8.00
2019-04-26T14:00:07.656Z,8.43
2019-04-26T14:02:52.035Z,9.37
2019-04-26T14:05:40.129Z,8.40
2019-04-26T14:08:46.881Z,8.07
2019-04-26T14:11:37.569Z,8.33
2019-04-26T14:14:25.085Z,8.37
2019-04-26T14:17:13.129Z,8.53
2019-04-26T14:20:00.639Z,6.97
2019-04-26T14:23:00.215Z,7.00
2019-04-26T14:25:55.655Z,7.53
2019-04-26T14:28:44.084Z,7.77
2019-04-26T14:31:31.910Z,6.70
2019-04-26T14:37:53.049Z,7.13
2019-04-26T14:43:44.501Z,6.70
2019-04-26T14:46:38.661Z,7.73
2019-04-26T14:49:38.306Z,6.30
2019-04-26T14:52:15.053Z,7.10
2019-04-26T14:55:06.042Z,6.77
2019-04-26T14:57:54.242Z,6.40
2019-04-26T15:04:29.758Z,6.33
2019-04-26T15:07:12.139Z,6.20
2019-04-26T15:10:00.357Z,6.60
2019-04-26T15:12:58.540Z,6.60
2019-04-26T15:15:48.380Z,6.00
2019-04-26T15:18:40.352Z,6.77
2019-04-26T15:21:31.788Z,5.97
2019-04-26T15:24:35.135Z,6.70
2019-04-26T15:27:24.538Z,7.00
2019-04-26T15:30:09.721Z,6.40
2019-04-26T15:33:16.350Z,6.50
2019-04-26T15:36:12.824Z,6.10
2019-04-26T15:39:21.721Z,6.43
2019-04-26T15:42:29.294Z,6.30
2019-04-26T15:45:18.984Z,6.70
2019-04-26T15:48:24.587Z,6.80
2019-04-26T15:51:24.440Z,6.70
2019-04-26T15:54:11.151Z,7.40
2019-04-26T15:57:01.980Z,6.70
2019-04-26T15:59:54.457Z,6.63
2019-04-26T16:02:42.645Z,7.20
2019-04-26T16:05:43.324Z,7.20
2019-04-26T16:08:42.407Z,7.23
2019-04-26T16:11:22.847Z,6.70
2019-04-26T16:14:12.312Z,7.07
2019-04-26T16:17:03.109Z,8.63
2019-04-26T16:19:50.157Z,7.50
2019-04-26T16:22:39.311Z,8.30
2019-04-26T16:25:26.926Z,6.93
2019-04-26T16:28:42.381Z,7.67
2019-04-26T16:31:47.089Z,6.97
2019-04-26T16:34:36.157Z,7.70
2019-04-26T16:37:30.149Z,8.00
2019-04-26T16:40:17.931Z,7.10
2019-04-26T16:43:05.649Z,7.27
2019-04-26T16:45:54.287Z,8.93
2019-04-26T16:48:44.504Z,9.13
2019-04-26T16:51:34.001Z,8.97
2019-04-26T16:54:26.115Z,9.73
2019-04-26T16:57:31.430Z,9.33
2019-04-26T17:00:19.698Z,9.60
2019-04-26T17:03:14.143Z,9.03
2019-04-26T17:07:09.011Z,9.70
2019-04-26T17:12:24.734Z,9.53
2019-04-26T17:18:59.533Z,10.97
2019-04-26T17:22:15.814Z,9.90
2019-04-26T17:28:48.492Z,10.10
2019-04-26T17:32:30.408Z,9.93
2019-04-26T17:34:40.467Z,10.67
2019-04-26T17:38:05.125Z,10.50
2019-04-26T17:40:52.733Z,10.17
2019-04-26T17:48:16.372Z,11.27
2019-04-26T17:51:12.133Z,11.03
2019-04-26T17:57:36.754Z,9.77
2019-04-26T18:00:28.441Z,9.70
2019-04-26T18:03:15.807Z,10.67
2019-04-26T18:06:04.098Z,9.67
2019-04-26T18:08:54.958Z,9.37
2019-04-26T18:11:41.907Z,10.17
2019-04-26T18:14:30.471Z,9.70
2019-04-26T18:17:38.907Z,11.60
2019-04-26T18:20:52.967Z,10.30
2019-04-26T18:23:40.001Z,9.60
2019-04-26T18:26:27.497Z,9.93
2019-04-26T18:29:15.352Z,10.23
2019-04-26T18:32:03.628Z,9.80
2019-04-26T18:34:51.368Z,9.53
2019-04-26T18:37:39.545Z,10.17
2019-04-26T18:40:27.420Z,10.73
2019-04-26T18:43:18.814Z,10.33
2019-04-26T18:46:09.803Z,9.67
2019-04-26T18:48:56.967Z,9.73
2019-04-26T18:51:48.245Z,10.87
2019-04-26T18:54:47.838Z,10.60
2019-04-26T18:57:33.846Z,9.90
2019-04-26T19:00:39.873Z,10.03
2019-04-26T19:03:30.231Z,10.10
2019-04-26T19:06:27.406Z,10.63
2019-04-26T19:09:06.696Z,10.53
2019-04-26T19:11:56.227Z,10.40
2019-04-26T19:15:07.821Z,10.10
2019-04-26T19:18:17.200Z,10.23
2019-04-26T19:21:11.635Z,10.07
2019-04-26T19:24:05.831Z,10.67
2019-04-26T19:26:49.924Z,10.83
2019-04-26T19:29:37.274Z,9.73
2019-04-26T19:32:25.200Z,10.57
2019-04-26T19:35:14.542Z,9.80
2019-04-26T19:38:03.294Z,10.67
2019-04-26T19:40:53.557Z,10.50
2019-04-26T19:43:43.528Z,10.67
2019-04-26T19:46:51.984Z,10.50
2019-04-26T19:49:50.135Z,9.63
2019-04-26T19:52:44.859Z,9.87
2019-04-26T19:55:59.143Z,10.10
2019-04-26T19:58:50.597Z,9.70
2019-04-26T20:01:35.731Z,10.40
2019-04-26T20:04:24.600Z,10.63
2019-04-26T20:07:12.196Z,9.87
2019-04-26T20:10:02.611Z,9.83
2019-04-26T20:12:48.898Z,10.30
2019-04-26T20:15:36.740Z,9.97
2019-04-26T20:18:24.404Z,10.27
2019-04-26T20:21:15.234Z,10.27
2019-04-26T20:24:01.455Z,10.33
2019-04-26T20:26:49.140Z,11.40
2019-04-26T20:29:40.754Z,11.47
2019-04-26T20:32:29.917Z,10.83
2019-04-26T20:44:57.301Z,12.23
2019-04-26T20:47:57.403Z,13.30
2019-04-26T20:51:02.219Z,12.07
2019-04-26T20:54:16.376Z,12.83
2019-04-26T20:57:04.805Z,13.10
2019-04-26T21:00:01.499Z,13.67
2019-04-26T21:03:23.654Z,11.77
2019-04-26T21:06:09.198Z,12.00
2019-04-26T21:08:59.149Z,12.37
2019-04-26T21:11:47.308Z,12.00
2019-04-26T21:14:44.544Z,10.57
2019-04-26T21:17:28.446Z,12.00
2019-04-26T21:20:16.991Z,11.53
2019-04-26T21:23:06.682Z,11.07
2019-04-26T21:26:14.790Z,10.57
2019-04-26T21:29:07.953Z,11.17
2019-04-26T21:32:16.450Z,10.80
2019-04-26T21:35:06.898Z,10.90
2019-04-26T21:38:00.030Z,10.70
2019-04-26T21:41:01.564Z,10.80
2019-04-26T21:43:45.222Z,10.80
2019-04-26T21:46:33.942Z,10.10
2019-04-26T21:49:22.202Z,10.20
2019-04-26T21:52:10.784Z,9.73
2019-04-26T21:54:58.555Z,10.60
2019-04-26T21:57:46.365Z,10.13
2019-04-26T22:00:53.624Z,9.60
2019-04-26T22:03:47.447Z,10.43
2019-04-26T22:06:29.478Z,11.00
2019-04-26T22:09:28.414Z,10.07
2019-04-26T22:12:15.907Z,10.60
2019-04-26T22:15:23.480Z,10.23
2019-04-26T22:18:21.484Z,10.13
2019-04-26T22:21:14.916Z,10.10
2019-04-26T22:24:09.674Z,10.10
2019-04-26T22:26:57.075Z,10.30
2019-04-26T22:29:47.654Z,10.33
2019-04-26T22:32:33.443Z,10.20
2019-04-26T22:35:21.658Z,9.73
2019-04-26T22:38:09.515Z,8.03
2019-04-26T22:40:57.585Z,9.77
2019-04-26T22:43:55.193Z,9.87
2019-04-26T22:47:03.621Z,9.80
2019-04-26T22:49:49.503Z,9.80
2019-04-26T22:52:36.532Z,10.33
2019-04-26T22:55:27.342Z,10.93
2019-04-26T22:58:13.501Z,10.07
2019-04-26T23:01:03.548Z,9.70
2019-04-26T23:06:13.608Z,9.97
2019-04-26T23:09:00.862Z,9.50
2019-04-26T23:11:53.833Z,10.30
2019-04-26T23:14:55.091Z,9.37
2019-04-26T23:18:03.706Z,9.30
2019-04-26T23:20:57.915Z,9.30
2019-04-26T23:23:47.113Z,9.80
2019-04-26T23:26:37.548Z,10.10
2019-04-26T23:29:24.759Z,10.07
2019-04-26T23:32:18.203Z,10.73
2019-04-26T23:35:02.908Z,10.03
2019-04-26T23:37:49.482Z,10.77
2019-04-26T23:40:36.762Z,10.47
2019-04-26T23:43:25.548Z,9.80
2019-04-26T23:46:14.593Z,10.63
2019-04-26T23:49:03.002Z,10.17
2019-04-26T23:51:50.986Z,9.27
2019-04-26T23:54:38.382Z,10.10
2019-04-26T23:57:27.409Z,9.70
